Holbrook, NY (11741)

11:06 AM EDT on June 02, 2015 (GMT -0400)
New England Village | | Change Station
CLOSE
Current Station
Personal Weather Station
Location: Holbrook, NY
Elevation: 82 ft
Nearby Weather Stations

Elev 82 ft 40.80 °N, 73.06 °W | Updated 13 minutes ago

Light Drizzle
Light Drizzle Mist
50.7 °F
Feels Like 50.7 °F
N
2.2
Wind Variable Wind from South

Today
High -- | Low -- °F
--% Chance of Precip.
Yesterday
High -- | Low -- °F
Precip. -- in
5:22 AM 8:18 PM
Full, 100% visible
Pressure 30.12 in
Visibility 2.0 miles
Clouds Mostly Cloudy 600 ft
Overcast 2100 ft
Dew Point 50 °F
Humidity 99%
Rainfall 0.33 in
Snow Depth Not available.
UV 3 out of 12
Pollen .50 out of 12
Air Quality Not available.
Flu Activity Sporadic
METAR KISP 021456Z 02011KT 2SM -DZ BR BKN006 OVC021 11/09 A3012 RMK AO2 SFC VIS 6 RAE55DZB55 SLP199 P0008 60010 T01060089 51008

More Conditions Fewer Conditions

Pressure 30.12 in
Visibility 2.0 miles
Clouds Mostly Cloudy 600 ft
Overcast 2100 ft
Dew Point 50 °F
Humidity 99%
Rainfall 0.33 in
Snow Depth Not available.
UV 3 out of 12
Pollen .50 out of 12
Air Quality Not available.
Flu Activity Sporadic
METAR KISP 021456Z 02011KT 2SM -DZ BR BKN006 OVC021 11/09 A3012 RMK AO2 SFC VIS 6 RAE55DZB55 SLP199 P0008 60010 T01060089 51008

More Conditions Fewer Conditions

10-Day Weather Forecast

Almanac

Astronomy

Jun. 02, 2015 Rise Set
Actual Time
Civil Twilight
Nautical Twilight
Astronomical Twilight
Moon
Length of Visible Light
Length of Day
Tomorrow will be .
, % of the Moon is Illuminated

Today's Extremes

State Highs State Lows

Community

WunderPhotos

Upload Photos

1,825,934 photos uploaded!

WunderBlogs® & News

Nearby

Air Quality

  Air Quality AQ Index Pollutant
Not available.

Snow Depth

Station Depth Elevation

Earthquake Activity

City Distance Mag. Time & Date
Minimum magnitude displayed is 2.5.

Coastal Water Temperatures

Place Temperature

Stations

Nearby Weather Stations

Station Location Temp. Windchill Dew Point Humidity Wind Precip. Elev Updated Type